Ksea taf.

METAR KSEA 010453Z 00000KT 10SM CLR 12/07 A3009 RMK AO2 SLP197 T01170072 $. There is little or no wind from a variable direction. Visibility is 10 mi. ... KSEA - Seattle-Tacoma International Airport METAR TAF. KRNT - Renton Municipal Airport (4.7 NM) METAR KBFI - Boeing Field/King County International ...

Ksea taf. Things To Know About Ksea taf.

KSEA (SEATTLE/METRO , WA, US) Text: KSEA 111509Z 1115/1218 14010KT P6SM -SHRA SCT025 OVC040 : Forecast period: 1500 to 2100 UTC 11 October 2023 Forecast type: FROM: standard forecast or significant change Winds: from the SE (140 degrees) at 12 MPH (10 knots; 5.1 m/s) Visibility: 6 or more miles (10+ km) Ceiling: Seattle-Tacoma International Airport WA. 47.44°N 122.3°W (Elev. 358 ft) Last Update: 3:40 am PDT Sep 13, 2023. Forecast Valid: 7am PDT Sep 13, 2023-6pm PDT Sep 19, 2023. Forecast Discussion.METAR KSEA 150253Z 34005KT 10SM CLR 19/11 A3001 RMK AO2 SLP167 T01940106 56008. The wind is from direction 340° with a speed of 5 kt. Visibility is 10 mi. No ceiling has been observed. ... KSEA - Seattle-Tacoma International Airport METAR TAF. KRNT - Renton Municipal Airport (4.7 NM) METAR KBFI - Boeing Field/King County International ...Oct 5, 2023 · taf; ksea 5nm sw : 100138z 1002/1106 21009g18kt p6sm -shra bkn025 bkn050 tempo 1002/1006 sct025 bkn035 fm100600 20006kt p6sm bkn050 ovc070 fm101400 16008kt p6sm -ra ... METAR KSEA 251953Z 16006KT 6SM -RA BR FEW035 BKN060 OVC080 16/12 A2976 RMK AO2 SLP083 P0006 T01560122. Current weather is light rain, mist.The wind is from direction 160° with a speed of 6 kt. Visibility is 6 mi. The ceiling, broken or more, is 6,000 ft. The temperature and wind chill are 16 °C.

Oct 9, 2023 · TAF for: KSEA (Seattle-Tacoma Intl, WA, US) issued at 1140 UTC 09 Oct 2023: Text: KSEA 091140Z 0912/1018 16008KT P6SM SCT120 BKN200 : Forecast period: 1200 to 1600 UTC 09 October 2023: Forecast type: FROM: standard forecast or significant change: Winds: from the SSE (160 degrees) at 9 MPH (8 knots; 4.1 m/s) Visibility: 6 or more sm (10+ km ... METAR KSEA 011453Z 06007KT 4SM BR OVC006 09/08 A3014 RMK AO2 SLP214 T00940078 52005 $. Current weather is mist.The wind is from direction 060° with a speed of 7 kt. Visibility is 4 mi. ... KSEA - Seattle-Tacoma International Airport METAR TAF. KRNT - Renton Municipal Airport (4.7 NM) METAR KBFI - Boeing Field/King County …

Request the most recent of the two icaoId's KSEA and PHNL from three hours ago, based on issue time. Only one TAF is returned, the most recent of the two from three hours ago. mostRecentForEachStation-constraint - request the most recent for each TAF station in the fastest fashion. Not appropriate for historical data retrieval

Format: Raw Decoded Include METAR. Data at: 1011 UTC 09 Oct 2023. RCTP 091000Z 04016G26KT 360V070 9999 -RA SCT007 BKN009 BKN015 24/23 Q1016 WS R05R NOSIG RMK A3001. TAF RCTP 090500Z 0906/1012 04020KT 9999 SCT006 BKN008 BKN015. TEMPO 0906/0912 SCT007 BKN012 BKN025. TEMPO 0918/0924 5000 RA SCT003 BKN005 BKN012.Impacts TAF Board. TAF Home. Plot. Data. Board. Info. For situational awareness. Not to be used for flight planning purposes. IDs: KSEA - Seattle-Tacoma Intl, WA, US. Issued at 1136 UTC 26 Mar 2023. Updated at 1323 UTC 26 Mar 2023. Potential Impact: None: Slight: Moderate: High: Time <<27/02Z 27/03Z 27/04Z 27/05Z 27/06Zksea 091253z 11004kt 10sm sct120 bkn200 ovc250 14/11 a2966 rmk ao2 slp046 t01440106 $ KSEA 091140Z 0912/1018 16008KT P6SM SCT120 BKN200 FM091600 16008KT P6SM BKN120 OVC200 FM092000 16008KT P6SM -RA OVC040 FM100000 21008KT P6SM SCT025 BKN045 OVC070 FM100800 16008KT P6SM SCT045 OVC070 FM101500 16008KT P6SM -RA OVC040TAF for: KSEA (Seattle-Tacoma Intl, WA, US) issued at 1509 UTC 11 Oct 2023: Text: KSEA 111509Z 1115/1218 14010KT P6SM -SHRA SCT025 OVC040 : Forecast period: 1500 to 2100 UTC 11 October 2023: Forecast type: FROM: standard forecast or significant change: Winds: from the SE (140 degrees) at 12 MPH (10 knots; 5.1 m/s) Visibility: 6 or more sm (10 ...

KRNT 081315Z 14003KT 10SM BKN011 13/12 A2990 RMK AO2 T01330117. No TAF found for KRNT. KSEA 081303Z 19005KT 10SM BKN008 BKN110 13/12 A2990 RMK AO2 T01330117 $. KSEA 081136Z 0812/0918 18006KT P6SM SCT100. FM081400 18006KT 6SM BR OVC006. FM081600 18006KT P6SM OVC011.

Impacts TAF Board. TAF Home. Plot. Data. Board. Info. For situational awareness. Not to be used for flight planning purposes. IDs: KSEA - Seattle-Tacoma Intl, WA, US. Issued at 1120 UTC 12 Aug 2023. Updated at 1206 UTC 12 Aug 2023. Potential Impact: None: Slight: Moderate: High: Time 1153Z 12/13Z 12/14Z 12/15Z 12/16Z 12/17Z

See full list on metar-taf.com METAR KSEA 230453Z 24007KT 10SM OVC050 12/05 A3018 RMK AO2 SLP226 T01220050. The wind is from direction 240° with a speed of 7 kt. Visibility is 10 mi. The ceiling, broken or more, is 5,000 ft. The temperature and wind chill are 12 °C.METAR KSEA 090553Z 02008KT 10SM FEW090 SCT150 21/12 A2992 RMK AO2 SLP136 T02060122 10261 20200 58002. The wind is from direction 020° with a speed of 8 kt. Visibility is 10 mi. ... KSEA - Seattle-Tacoma International Airport METAR TAF. KRNT - Renton Municipal Airport (4.7 NM) METAR KBFI - Boeing Field/King County …Flight plan departing from KSEA - Seattle-Tacoma Intl, arriving at KPEA - PELLA MUNI. Distance 1,317 nm / 2,438 km. Download for FSX, X-Plane, PMDG, Infinite Flight, PDF or other products. OMjVJFpU-f9FPytQQuAUnpf4ycLYCuRmDgKkMETAR KSEA 151801Z 01004KT 10SM CLR 29/14 A3002 RMK AO2 T02890144 $. The wind is from direction 010° with a speed of 4 kt. Visibility is 10 mi. No ceiling has been observed. ... KSEA - Seattle-Tacoma International Airport METAR TAF. KRNT - Renton Municipal Airport (4.7 NM) METAR KBFI - Boeing Field/King County International ...KSEA - Seattle-Tacoma Intl, WA, US Issued at 2141 UTC 09 Oct 2023 Updated at 2154 UTC 09 Oct 2023 Potential Impact None Slight Moderate High NOTE: LAMP data beyond the time of the TAF data is denoted as LAMP in Type and colored magenta. Raw TAF KSEA 092141Z 0922/1024 21007KT P6SM -RA OVC040 FM100000 20008KT P6SM -SHRA SCT025 BKN045 OVC070

Seattle Clearance. Tower. 119.90 MHz. Seattle Tower. Warning: Do not use this data for real-world aviation or navigation. No guarantee of current accuracy is given. Airport information for Seattle-Tacoma Intl (KSEA) in , including runways, map, navaids, weather (METAR/TAF) and ATC frequencies. For flight simulation use only.KSEA: APT-0 / 0: 47.45020 / -122.31200: 319 / 595 nm: Seattle-Tacoma Intl: Altitude Profile. Advertisement - Login to hide. Weather. ... TAF AMD KSFO 220900Z 2209/2312 29008KT P6SM FEW009 FM221100 26005KT P6SM BKN009 FM221600 30005KT P6SM SCT010 FM222100 30015KT P6SM SKC FM231000 27007KT P6SM SCT015METAR Home. Plot. Data. Board. Info. IDs: Format: Raw Decoded Include TAF. Data at: 1935 UTC 04 Oct 2023. Region: TOP. KATL 041852Z COR 09007KT 10SM SCT046 BKN250 28/15 A3013 RMK AO2 SLP194 T02780150 $.METAR KSEA 302353Z 25004KT 10SM FEW023 16/08 A3006 RMK AO2 SLP185 T01560078 10167 20117 53001 $. The wind is from direction 250° with a speed of 4 kt. Visibility is 10 mi. ... KSEA - Seattle-Tacoma International Airport METAR TAF. KRNT - Renton Municipal Airport (4.7 NM) METAR KBFI - Boeing Field/King County International ...Terminal Area Forecast. KSEA. RAW. Reported. Mon, 10/9 4:20 PM PDT. Valid. Mon, 10/9 5:00 PM PDT - Tue, 10/10 11:00 PM PDT. VFR. ... KSEA 092320Z 1000/1106 20008KT P6SM -SHRA SCT025 BKN045 OVC070 FM100400 20006KT P6SM SCT045 OVC070 FM101400 16008KT P6SM -RA OVC040 FM101900 14008KT P6SM -SHRA OVC040 …METAR KSEA 302353Z 25004KT 10SM FEW023 16/08 A3006 RMK AO2 SLP185 T01560078 10167 20117 53001 $. The wind is from direction 250° with a speed of 4 kt. Visibility is 10 mi. ... KSEA - Seattle-Tacoma International Airport METAR TAF. KRNT - Renton Municipal Airport (4.7 NM) METAR KBFI - Boeing Field/King County International ...TAF CYEG 112340Z 1200/1224 VRB03KT P6SM SCT100 TEMPO 1200/1208 SCT030 BKN100 FM120800 VRB03KT P6SM SKC BECMG 1216/1218 14010KT RMK NXT FCST BY 120300Z Your time : UTC time: Log out. Weather data provided by Environment Canada and NAV CANADA AWWS Decommissioning - November 22, 2023 ...

TAF Text Data. TAF Home. Plot. Data. Board. Info. IDs: Format: Raw Decoded Include METAR Data at: 1453 UTC 14 Sep 2023. KSEA 141341Z 1414/1518 02008KT 4SM BR BKN003 TEMPO 1415/1416 6SM BR SCT003 FM141600 35008KT P6SM SKC. Page loaded: 14:53 UTC | 07:53 AM Pacific | 08:53 AM Mountain | 09:53 AM Central | 10:53 AM Eastern ...

TAF ; NOTAM ; History ... KSEA B) 2309182217 E) SEA SVC TAR U/S CANCELED September 18, 2023 15:17 - September 21, 2023 15:17 LT Parsed version of TAF for Seattle Tacoma International Airport (KSEA) From 28 September at 08:00 UTC, to day 29 of the month at 12:00 UTC; Clouds: Scattered at 1219 meters; …Impacts TAF Board. TAF Home. Plot. Data. Board. Info. For situational awareness. Not to be used for flight planning purposes. IDs: KSEA - Seattle-Tacoma Intl, WA, US. Issued at 1505 UTC 02 Jul 2023. Updated at 1517 UTC 02 Jul 2023. Potential Impact: None: Slight: Moderate: High: Time 1453Z 02/16Z 02/17Z 02/18Z 02/19Z 02/20ZWinds/Temps Data. Click on map to access text data for each region. Page loaded: 07:06 UTC | 12:06 AM Pacific | 01:06 AM Mountain | 02:06 AM Central | 03:06 AM Eastern. Aviation Weather Center Homepage provides comprehensive user-friendly aviation weather Text products and graphics.NOTE: LAMP data beyond the time of the TAF data is denoted as LAMP in Type and colored magenta. Raw TAF. KATL 100348Z 1004/1106 23006KT P6SM SKC. FM101800 24012KT P6SM SCT250. FM110000 24006KT P6SM SCT250. Raw METAR. KATL 100452Z 22006KT 10SM CLR 16/07 A2991 RMK AO2 SLP122 T01560072 402390083 $.NOTE: LAMP data beyond the time of the TAF data is denoted as LAMP in Type and colored magenta. Raw TAF KSEA 060901Z 0609/0712 01008KT P6SM SKC FM061200 03006KT 6SM BR SCT002 FM061700 35007KT P6SM SKC FM070600 04005KT P6SM SKC Raw METAR KSEA 060853Z 36007KT 10SM CLR 12/10 A3027 RMK AO2 SLP257 T01220100 56006 KSEA 060753Z 01010KT 10SM CLR 13/11 A3028 RMK AO2 SLP258 T01280106 401940128 KSEA ...Flight plan departing from KSEA - Seattle-Tacoma Intl, arriving at PAFA - Fairbanks Intl. Distance 1,349 nm / 2,498 km. Download for FSX, X-Plane, PMDG, Infinite Flight, PDF or other products. ... TAF TAF PAFA 171140Z 1712/1818 23006KT P6SM BKN060 FM172100 25007KT P6SM VCSH BKN050 FM181700 21004KT P6SM -RA OVC035 Decode. Destination Runways. ID ...METAR KSEA 130353Z 31006KT 10SM FEW250 21/09 A3019 RMK AO2 SLP226 T02060094. The wind is from direction 310° with a speed of 6 kt. Visibility is 10 mi. No ceiling has been observed. ... KSEA - Seattle-Tacoma International Airport METAR TAF. KRNT - Renton Municipal Airport (4.7 NM) METAR KBFI - Boeing Field/King County International ...METAR KSEA 211953Z 19007KT 10SM OVC021 13/08 A3022 RMK AO2 SLP239 T01330083. The wind is from direction 190° with a speed of 7 kt. Visibility is 10 mi. The ceiling, broken or more, is 2,100 ft. The temperature and wind chill are 13 °C.Impacts TAF Board. TAF Home. Plot. Data. Board. Info. For situational awareness. Not to be used for flight planning purposes. IDs: KSEA - Seattle-Tacoma Intl, WA, US. Issued at 0522 UTC 12 Mar 2023. Updated at 0656 UTC 12 Mar 2023. Potential Impact: None: Slight: Moderate: High: Time <<12/19Z 12/20Z 12/21Z 12/22Z 12/23Z

METAR KSEA 151553Z 21006KT 10SM SCT075 BKN095 08/04 A3010 RMK AO2 SLP201 T00780039. The wind is from direction 210° with a speed of 6 kt. Visibility is 10 mi. The ceiling, broken or more, is 9,500 ft. The temperature is 8 °C, with a wind chill of 4 °C.

Windy: KSEA (SEA) Seattle-Tacoma International Airport, METAR, TAF, NOTAM and weather forecast. Piedras Negras. Texas.

ksea 102353z 17011g16kt 10sm few031 sct048 bkn070 15/10 a2944 rmk ao2 rab07e29 slp976 p0001 60002 t01500100 10167 20117 56005 ksea 102340z 1100/1206 18012g20kt p6sm -shra few025 bkn030 ovc060 fm111200 18008kt p6sm -shra bkn025 ovc035 fm111500 18006kt 5sm -shra ovc020 fm112100 22005kt p6sm -shra ovc030 fm112300 28003kt …Windy: KSEA (SEA) Seattle–Tacoma International Airport, METAR, TAF, NOTAM and weather forecast. Piedras Negras. Texas.METAR KSEA 190553Z 23004KT 10SM CLR 17/10 A3000 RMK AO2 SLP162 T01670100 10239 20167 50011. The wind is from direction 230° with a speed of 4 kt. Visibility is 10 mi. ... KSEA - Seattle-Tacoma International Airport METAR TAF. KRNT - Renton Municipal Airport (4.7 NM) METAR KBFI - Boeing Field/King County International ...METAR KSEA 161953Z 20014G20KT 5SM -RA BR FEW013 SCT022 OVC037 08/06 A2991 RMK AO2 SLP136 P0004 T00780056. Current weather is light rain, mist.The wind is from direction 200° with a speed of 14 kt. Visibility is 5 mi. The ceiling, broken or more, is 3,700 ft. The temperature is 8 °C, with a wind chill of 2 °C.NOTE: LAMP data beyond the time of the TAF data is denoted as LAMP in Type and colored magenta. Raw TAF KSEA 270314Z 2703/2806 02010KT 5SM -RA OVC035 FM271200 15015G25KT 5SM -RA OVC020 FM271500 13020G30KT 4SM -RA OVC020 FM272100 19012G25KT 4SM -RA BR OVC015 METAR Board Radar DisplayNOTE: LAMP data beyond the time of the TAF data is denoted as LAMP in Type and colored magenta. Raw TAF. KATL 100348Z 1004/1106 23006KT P6SM SKC. FM101800 24012KT P6SM SCT250. FM110000 24006KT P6SM SCT250. Raw METAR. KATL 100452Z 22006KT 10SM CLR 16/07 A2991 RMK AO2 SLP122 T01560072 402390083 $.METAR KSEA 091153Z 21008KT 10SM -RA OVC060 09/07 A3010 RMK AO2 RAB34 SLP199 P0000 60000 T00940072 10139 20094 53015. Current weather is light rain.The wind is from direction 210° with a speed of 8 kt. Visibility is 10 mi. The ceiling, broken or more, is 6,000 ft. The temperature is 9 °C, with a wind chill of 5 °C.Impacts TAF Board. TAF Home. Plot. Data. Board. Info. For situational awareness. Not to be used for flight planning purposes. IDs: KSEA - Seattle-Tacoma Intl, WA, US. Issued at 1352 UTC 10 Jan 2023. Updated at 1358 UTC 10 Jan 2023. Potential Impact: None: Slight: Moderate: High: Time 1353Z 10/14Z 10/15Z 10/16Z 10/17Z 10/18ZTAF for: KSEA (Seattle-Tacoma Intl, WA, US) issued at 0300 UTC 22 Sep 2023: Text: KSEA 220300Z 2203/2306 01005KT P6SM SKC : Forecast period: 0300 to 0900 UTC 22 September 2023: Forecast type: FROM: standard forecast or significant change: Winds: from the N (10 degrees) at 6 MPH (5 knots; 2.6 m/s)data at: 1030 utc 10 oct 2023. ksea 100953z 13006kt 10sm bkn060 12/09 a2963 rmk ao2 slp040 t01220089 ksea 100933z 1010/1112 19008kt p6sm bkn070 ovc200 fm101400 15009kt p6sm -ra ovc050 fm102000 19012g19kt p6sm -shra sct035 bkn040 ovc050 fm110600 18012g18kt p6sm -shra bkn030 ovc040A METAR (METeorological Aerodrome Report) is an observation and provides information about the current weather. A TAF (Terminal Area Forecast) provides a forecast for a longer period, for example 8, 24 or 36 hours. Both are prepared for aviation and contain weather information that pilots need. This is how you read a METAR.

KSEA (0.3 NM at True Heading of 197) METAR: KSEA 210253Z 01006KT 10SM FEW070 FEW220 14/07 A3011 RMK AO2 SLP204 T01440072 52008 TAF: KSEA 202320Z 2100/2206 04006KT P6SM SCT050 FM211400 03006KT 6SM BR FEW040 FM211700 35012G20KT P6SM FEW100: Traveling to SEA? Flights. Lodging. Rental Cars. Taxis.Impacts TAF Board. TAF Home. Plot. Data. Board. Info. For situational awareness. Not to be used for flight planning purposes. IDs: KSEA - Seattle-Tacoma Intl, WA, US. Issued at 1616 UTC 17 Feb 2023. Updated at 1622 UTC 17 Feb 2023. Potential Impact: None: Slight: Moderate: High: Time 1553Z 17/17Z 17/18Z 17/19Z 17/20Z 17/21ZFM192000 15006KT P6SM SKC. KMYF 182253Z 30010KT 10SM CLR 24/12 A2996 RMK AO2 SLP140 T02440117. No TAF found for KMYF. KSEA 182253Z 01006KT 10SM FEW030 SCT070 BKN200 19/06 A3011 RMK AO2 SLP201 T01890061. KSEA 182158Z 1822/1924 35009KT P6SM SCT035 BKN060. FM190300 03005KT P6SM BKN120 OVC200.KSEA: APT-0 / 0: 47.45020 / -122.31200: 319 / 595 nm: Seattle-Tacoma Intl: Altitude Profile. Advertisement - Login to hide. Weather. ... TAF AMD KSFO 220900Z 2209/2312 29008KT P6SM FEW009 FM221100 26005KT P6SM BKN009 FM221600 30005KT P6SM SCT010 FM222100 30015KT P6SM SKC FM231000 27007KT P6SM SCT015Instagram:https://instagram. craigslist white plains nyfirst lee tag agencyaz unemployment loginwhere is kassandra toruga now Raw TAF. KSEA 190311Z 1903/2006 21007KT P6SM BKN035. FM191200 18004KT P6SM BKN020 OVC035. FM191800 24006KT P6SM SCT020 BKN040. Raw METAR. KSEA 190402Z 23008KT 10SM SCT026 OVC060 14/09 A3006 RMK AO2 T01390089. KSEA 190353Z 24007KT 10SM BKN026 BKN060 OVC085 14/09 A3006 RMK AO2 RAE00 SLP185 P0000 T01390089. cheap apartments in gilbert azarrello Format: Raw Decoded Include METAR. Data at: 1843 UTC 06 Oct 2023. PANC 061753Z 00000KT 10SM FEW003 BKN080 BKN110 05/04 A2968 RMK AO2 SLP052 T00500039 10050 20033 53014. PANC 061735Z 0618/0724 31005KT P6SM VCSH BKN080. FM070000 33007KT P6SM -SHRA OVC050. PAED 061755Z 01009KT 10SM FEW005 SCT080 … india royale tattoo Updated 11-Oct-2023. write. ASRI 131.75. 206-762-6376. [ web site] [ email] Welcoming guests to the panoramic beauty of the Pacific Northwest, Skyservice Seattle is located at King County-Boeing Field International Airport (KBFI), one of the busiest primary general aviation airports in the United States.taf; ksea 5nm sw : 100138z 1002/1106 21009g18kt p6sm -shra bkn025 bkn050 tempo 1002/1006 sct025 bkn035 fm100600 20006kt p6sm bkn050 ovc070 fm101400 16008kt p6sm -ra ovc040 fm101900 14008kt p6sm -shra ovc040 kbfi 5nm nw :ksea: taf ksea 101120z 1012/1118 20004kt 5sm -shra br bkn007 ovc012 fm101700 21004kt p6sm vcsh ovc010 fm102200 24006kt p6sm bkn025 ovc040 fm110100 33006kt p6sm bkn050 bkn100 fm110700 02006kt p6sm sct060 bkn120 fm111200 02006kt p6sm bkn040 w 18 nm 444' kpwt: taf kpwt 101120z 1012/1112 19003kt 6sm -shra bkn004 ovc011 fm101900 20003kt p6sm vcsh ovc012